createdAt,value
2022-12-11T04:00:21.124Z,29.93
2022-12-11T04:03:13.232Z,27.33
2022-12-11T04:05:42.641Z,27.37
2022-12-11T04:08:11.298Z,29.97
2022-12-11T04:10:39.471Z,28.50
2022-12-11T04:13:07.979Z,31.67
2022-12-11T04:15:44.289Z,27.33
2022-12-11T04:18:29.607Z,26.90
2022-12-11T04:21:15.154Z,26.10
2022-12-11T04:24:00.643Z,30.80
2022-12-11T04:26:28.685Z,27.90
2022-12-11T04:28:56.535Z,29.40
2022-12-11T04:31:25.932Z,26.40
2022-12-11T04:33:53.948Z,27.43
2022-12-11T04:36:22.184Z,27.57
2022-12-11T04:38:50.000Z,26.20
2022-12-11T04:41:21.042Z,25.67
2022-12-11T04:43:48.984Z,30.33
2022-12-11T04:46:19.340Z,25.60
2022-12-11T04:48:55.367Z,25.73
2022-12-11T04:51:24.947Z,27.10
2022-12-11T04:53:52.935Z,27.90
2022-12-11T04:56:21.124Z,28.45
2022-12-11T04:58:49.557Z,30.87
2022-12-11T05:01:19.528Z,30.67
2022-12-11T05:03:49.057Z,29.57
2022-12-11T05:06:16.935Z,30.70
2022-12-11T05:08:45.537Z,30.57
2022-12-11T05:11:15.673Z,30.67
2022-12-11T05:13:44.165Z,31.43
2022-12-11T05:16:15.371Z,27.80
2022-12-11T05:18:43.696Z,28.93
2022-12-11T05:21:15.569Z,29.07
2022-12-11T05:23:43.552Z,27.70
2022-12-11T05:26:15.336Z,29.10
2022-12-11T05:28:43.771Z,27.67
2022-12-11T05:31:15.122Z,28.73
2022-12-11T05:33:43.096Z,27.30
2022-12-11T05:36:18.176Z,28.77
2022-12-11T05:38:46.040Z,28.77
2022-12-11T05:41:16.212Z,27.27
2022-12-11T05:43:45.612Z,31.03
2022-12-11T05:46:15.697Z,28.80
2022-12-11T05:48:44.537Z,27.97
2022-12-11T05:51:16.711Z,27.23
2022-12-11T05:53:46.236Z,29.97
2022-12-11T05:56:16.501Z,30.17
2022-12-11T05:58:45.609Z,28.60
2022-12-11T06:01:16.058Z,28.33
2022-12-11T06:03:44.642Z,30.63
2022-12-11T06:06:12.787Z,30.03
2022-12-11T06:08:42.009Z,28.00
2022-12-11T06:11:10.166Z,28.17
2022-12-11T06:13:38.018Z,31.33
2022-12-11T06:16:07.918Z,27.73
2022-12-11T06:18:37.507Z,32.93
2022-12-11T06:21:13.394Z,30.17
2022-12-11T06:23:45.118Z,31.17
2022-12-11T06:26:13.686Z,26.93
2022-12-11T06:28:41.757Z,31.20
2022-12-11T06:31:09.672Z,31.27
2022-12-11T06:33:37.608Z,29.87
2022-12-11T06:36:06.694Z,28.40
2022-12-11T06:38:34.702Z,29.73
2022-12-11T06:41:05.602Z,27.63
2022-12-11T06:43:34.287Z,27.83
2022-12-11T06:46:05.082Z,29.07
2022-12-11T06:48:33.289Z,27.13
2022-12-11T06:51:01.375Z,31.50
2022-12-11T06:53:29.248Z,30.70
2022-12-11T06:55:57.111Z,28.90
2022-12-11T06:58:26.320Z,29.23
2022-12-11T07:00:54.230Z,29.37
2022-12-11T07:03:25.918Z,33.33
2022-12-11T07:05:53.874Z,33.60
2022-12-11T07:08:21.808Z,37.60
2022-12-11T07:10:49.719Z,37.27
2022-12-11T07:13:17.748Z,37.70
2022-12-11T07:15:46.941Z,35.83
2022-12-11T07:18:14.843Z,32.83
2022-12-11T07:20:42.692Z,36.33
2022-12-11T07:23:10.729Z,32.13
2022-12-11T07:25:38.647Z,30.50
2022-12-11T07:28:06.553Z,29.77
2022-12-11T07:30:34.432Z,30.00
2022-12-11T07:33:03.751Z,33.80
2022-12-11T07:35:31.630Z,32.10
2022-12-11T07:37:59.618Z,32.90
2022-12-11T07:40:27.621Z,30.70
2022-12-11T07:42:55.530Z,30.40
2022-12-11T07:45:23.550Z,33.00
2022-12-11T07:47:52.362Z,30.57
2022-12-11T07:50:21.662Z,29.50
2022-12-11T07:52:49.997Z,28.40
2022-12-11T07:55:18.187Z,29.70
2022-12-11T07:57:46.036Z,26.73
2022-12-11T08:00:14.832Z,29.97
2022-12-11T08:02:42.749Z,32.40
2022-12-11T08:05:12.362Z,36.00
2022-12-11T08:07:41.749Z,29.73
2022-12-11T08:10:10.345Z,32.97
2022-12-11T08:12:38.176Z,36.17
2022-12-11T08:15:07.009Z,35.97
2022-12-11T08:17:39.873Z,28.27
2022-12-11T08:20:09.352Z,31.33
2022-12-11T08:22:37.341Z,28.40
2022-12-11T08:25:07.752Z,31.17
2022-12-11T08:27:35.687Z,32.57
2022-12-11T08:30:03.835Z,29.60
2022-12-11T08:32:31.786Z,31.70
2022-12-11T08:34:59.632Z,32.80
2022-12-11T08:37:29.532Z,35.03
2022-12-11T08:39:57.469Z,32.47
2022-12-11T08:42:26.674Z,35.70
2022-12-11T08:44:54.582Z,34.00
2022-12-11T08:47:22.977Z,34.33
2022-12-11T08:49:50.859Z,36.10
2022-12-11T08:52:18.697Z,32.63
2022-12-11T08:54:46.548Z,34.67
2022-12-11T08:57:14.391Z,35.53
2022-12-11T08:59:43.602Z,36.60
2022-12-11T09:02:12.720Z,34.37
2022-12-11T09:04:40.824Z,32.57
2022-12-11T09:07:08.718Z,36.13
2022-12-11T09:09:36.610Z,34.63
2022-12-11T09:12:04.852Z,32.53
2022-12-11T09:14:32.755Z,32.00
2022-12-11T09:17:02.019Z,31.93
2022-12-11T09:19:32.366Z,34.17
2022-12-11T09:22:00.708Z,31.13
2022-12-11T09:24:28.673Z,33.90
2022-12-11T09:26:56.529Z,33.10
2022-12-11T09:29:24.392Z,33.23
2022-12-11T09:31:52.255Z,34.20
2022-12-11T09:34:27.509Z,32.50
2022-12-11T09:36:57.743Z,35.93
2022-12-11T09:39:25.580Z,34.83
2022-12-11T09:42:01.065Z,35.93
2022-12-11T09:44:40.921Z,36.03
2022-12-11T09:47:25.980Z,36.80
2022-12-11T09:50:03.654Z,34.97
2022-12-11T09:52:38.175Z,32.53
2022-12-11T09:55:15.792Z,38.40
2022-12-11T09:57:54.786Z,38.90
2022-12-11T10:00:29.359Z,39.87
2022-12-11T10:03:21.937Z,37.17
2022-12-11T10:06:04.053Z,37.50
2022-12-11T10:08:40.047Z,43.10
2022-12-11T10:11:32.734Z,36.90
2022-12-11T10:14:08.606Z,37.67
2022-12-11T10:16:41.510Z,37.87
2022-12-11T10:19:17.911Z,37.93
2022-12-11T10:21:48.686Z,48.23
2022-12-11T10:24:57.538Z,51.63
2022-12-11T10:27:19.122Z,41.63
2022-12-11T10:29:47.811Z,36.50
2022-12-11T10:32:24.716Z,38.10
2022-12-11T10:34:58.170Z,37.93
2022-12-11T10:37:27.449Z,33.30
2022-12-11T10:39:55.338Z,33.77
2022-12-11T10:42:24.311Z,32.73
2022-12-11T10:45:00.435Z,30.83
2022-12-11T10:47:29.360Z,29.57
2022-12-11T10:49:58.919Z,35.20
2022-12-11T10:52:32.556Z,35.73
2022-12-11T10:55:03.207Z,37.43
2022-12-11T10:57:33.428Z,37.30
2022-12-11T11:00:02.513Z,37.83
2022-12-11T11:02:33.348Z,37.37
2022-12-11T11:05:11.841Z,34.67
2022-12-11T11:07:41.401Z,34.17
2022-12-11T11:10:17.381Z,37.17
2022-12-11T11:12:46.861Z,37.27
2022-12-11T11:15:17.359Z,33.30
2022-12-11T11:17:54.650Z,33.17
2022-12-11T11:20:25.440Z,34.67
2022-12-11T11:22:57.722Z,29.93
2022-12-11T11:25:27.347Z,34.63
2022-12-11T11:27:57.271Z,33.23
2022-12-11T11:30:27.255Z,34.80
2022-12-11T11:32:57.446Z,30.77
2022-12-11T11:35:27.314Z,29.83
2022-12-11T11:38:03.107Z,29.83
2022-12-11T11:40:34.385Z,28.73
2022-12-11T11:43:12.210Z,29.57
2022-12-11T11:45:47.653Z,31.73
2022-12-11T11:48:28.241Z,34.03
2022-12-11T11:50:57.894Z,30.77
2022-12-11T11:53:32.936Z,30.83
2022-12-11T11:56:08.103Z,30.93
2022-12-11T11:58:42.708Z,30.50
2022-12-11T12:01:16.225Z,31.57
2022-12-11T12:03:44.659Z,30.23
2022-12-11T12:06:20.842Z,30.07
2022-12-11T12:08:58.920Z,31.97
2022-12-11T12:11:35.380Z,28.93
2022-12-11T12:14:43.558Z,35.37
2022-12-11T12:17:20.307Z,29.13
2022-12-11T12:19:55.954Z,28.97
2022-12-11T12:22:37.785Z,30.07
2022-12-11T12:25:18.173Z,28.13
2022-12-11T12:27:54.824Z,28.97
2022-12-11T12:30:24.104Z,25.47
2022-12-11T12:33:11.744Z,29.87
2022-12-11T12:35:45.602Z,26.13
2022-12-11T12:38:22.528Z,25.83
2022-12-11T12:41:00.229Z,25.20
2022-12-11T12:43:44.005Z,29.87
2022-12-11T12:46:23.060Z,28.07
2022-12-11T12:48:52.639Z,27.53
2022-12-11T12:51:20.924Z,28.47
2022-12-11T12:53:56.450Z,26.57
2022-12-11T12:56:26.828Z,27.30
2022-12-11T12:58:54.758Z,22.03
2022-12-11T13:01:25.427Z,25.83
2022-12-11T13:03:57.789Z,26.27
2022-12-11T13:06:37.846Z,26.17
2022-12-11T13:09:15.847Z,29.37
2022-12-11T13:11:45.688Z,28.63
2022-12-11T13:14:28.494Z,27.87
2022-12-11T13:17:08.623Z,26.70
2022-12-11T13:19:42.300Z,26.03
2022-12-11T13:22:23.933Z,26.23
2022-12-11T13:25:01.494Z,31.50
2022-12-11T13:27:40.089Z,28.20
2022-12-11T13:30:22.816Z,27.67
2022-12-11T13:32:59.692Z,28.43
2022-12-11T13:35:28.118Z,28.63
2022-12-11T13:38:06.932Z,32.53
2022-12-11T13:40:40.148Z,25.07
2022-12-11T13:43:17.259Z,27.03
2022-12-11T13:45:49.861Z,29.00
2022-12-11T13:48:22.147Z,29.80
2022-12-11T13:50:52.397Z,25.07
2022-12-11T13:53:21.407Z,25.67
2022-12-11T13:55:58.469Z,31.47
2022-12-11T13:58:28.582Z,25.77
2022-12-11T14:01:05.422Z,26.60
2022-12-11T14:03:33.976Z,27.47
2022-12-11T14:06:03.597Z,27.03
2022-12-11T14:08:37.133Z,30.30
2022-12-11T14:11:06.131Z,31.53
2022-12-11T14:13:38.542Z,29.10
2022-12-11T14:16:07.988Z,27.57
2022-12-11T14:18:37.686Z,27.20
2022-12-11T14:21:07.664Z,28.10
2022-12-11T14:23:37.609Z,27.93
2022-12-11T14:26:17.952Z,31.20
2022-12-11T14:28:47.447Z,23.77
2022-12-11T14:31:19.197Z,27.73
2022-12-11T14:33:50.570Z,25.93
2022-12-11T14:36:20.346Z,28.27
2022-12-11T14:38:53.953Z,26.53
2022-12-11T14:41:26.874Z,28.57
2022-12-11T14:43:59.790Z,28.40
2022-12-11T14:46:33.706Z,26.93
2022-12-11T14:49:06.385Z,29.13
2022-12-11T14:51:39.619Z,29.67
2022-12-11T14:54:08.773Z,28.57
2022-12-11T14:56:36.656Z,28.23
2022-12-11T14:59:09.048Z,28.60
2022-12-11T15:01:38.533Z,28.47
2022-12-11T15:04:08.833Z,31.73
2022-12-11T15:06:44.379Z,28.47
2022-12-11T15:09:20.058Z,28.33
2022-12-11T15:11:49.611Z,28.67
2022-12-11T15:14:21.136Z,32.37
2022-12-11T15:16:50.323Z,30.93
2022-12-11T15:19:25.476Z,30.87
2022-12-11T15:21:53.835Z,27.83
2022-12-11T15:24:32.514Z,29.67
2022-12-11T15:27:01.950Z,29.37
2022-12-11T15:29:35.619Z,26.13
2022-12-11T15:32:18.468Z,25.40
2022-12-11T15:34:48.630Z,29.10
2022-12-11T15:37:24.331Z,27.77
2022-12-11T15:39:53.266Z,28.43
2022-12-11T15:42:26.581Z,27.57
2022-12-11T15:44:56.763Z,29.83
2022-12-11T15:47:27.420Z,25.90
2022-12-11T15:49:58.023Z,30.77
2022-12-11T15:52:26.162Z,28.30
2022-12-11T15:54:54.020Z,28.53
2022-12-11T15:57:24.848Z,27.10
2022-12-11T15:59:55.989Z,26.27
2022-12-11T16:02:26.470Z,30.10
2022-12-11T16:04:54.511Z,30.87
2022-12-11T16:07:24.524Z,26.07
2022-12-11T16:09:53.184Z,26.43
2022-12-11T16:12:21.047Z,30.53
2022-12-11T16:14:48.900Z,30.10
2022-12-11T16:17:18.215Z,31.97
2022-12-11T16:19:46.397Z,31.30
2022-12-11T16:22:14.857Z,29.10
2022-12-11T16:24:44.209Z,26.07
2022-12-11T16:27:12.126Z,26.63
2022-12-11T16:29:41.979Z,28.93
2022-12-11T16:32:10.300Z,26.37
2022-12-11T16:34:39.686Z,28.10
2022-12-11T16:37:09.180Z,29.03
2022-12-11T16:39:39.016Z,30.93
2022-12-11T16:42:07.697Z,27.73
2022-12-11T16:44:39.666Z,27.73
2022-12-11T16:47:11.718Z,26.27
2022-12-11T16:49:42.018Z,29.10
2022-12-11T16:52:10.557Z,31.13
2022-12-11T16:54:38.730Z,36.77
2022-12-11T16:57:06.683Z,33.37
2022-12-11T16:59:37.412Z,30.13
2022-12-11T17:02:06.351Z,28.60
2022-12-11T17:04:34.280Z,33.00
2022-12-11T17:07:03.616Z,31.93
2022-12-11T17:09:31.497Z,34.03
2022-12-11T17:11:59.488Z,30.07
2022-12-11T17:14:27.511Z,31.67
2022-12-11T17:16:56.591Z,32.40
2022-12-11T17:19:24.769Z,31.33
2022-12-11T17:21:54.073Z,32.00
2022-12-11T17:24:23.265Z,34.53
2022-12-11T17:26:51.163Z,30.03
2022-12-11T17:29:19.876Z,33.10
2022-12-11T17:31:47.720Z,34.77
2022-12-11T17:34:15.833Z,31.67
2022-12-11T17:36:43.772Z,30.93
2022-12-11T17:39:11.589Z,31.73
2022-12-11T17:41:40.791Z,33.10
2022-12-11T17:44:08.597Z,30.60
2022-12-11T17:46:36.565Z,34.83
2022-12-11T17:49:04.900Z,39.03
2022-12-11T17:51:32.777Z,48.67
2022-12-11T17:54:00.645Z,36.67
2022-12-11T17:56:28.615Z,37.83
2022-12-11T17:58:59.303Z,33.07
2022-12-11T18:01:27.301Z,33.83
2022-12-11T18:03:55.420Z,34.13
2022-12-11T18:06:23.584Z,35.90
2022-12-11T18:08:51.448Z,35.57
2022-12-11T18:11:21.545Z,34.20
2022-12-11T18:13:50.570Z,31.93
2022-12-11T18:16:22.801Z,31.30
2022-12-11T18:18:51.237Z,30.93
2022-12-11T18:21:22.514Z,32.13
2022-12-11T18:23:51.815Z,30.30
2022-12-11T18:26:20.654Z,31.70
2022-12-11T18:28:49.802Z,32.47
2022-12-11T18:31:19.894Z,34.80
2022-12-11T18:33:48.547Z,33.33
2022-12-11T18:36:18.637Z,36.70
2022-12-11T18:38:48.114Z,34.17
2022-12-11T18:41:18.204Z,37.27
2022-12-11T18:43:46.125Z,49.90
2022-12-11T18:46:16.118Z,47.13
2022-12-11T18:48:46.433Z,38.50
2022-12-11T18:51:17.161Z,35.20
2022-12-11T18:53:45.681Z,34.63
2022-12-11T18:56:16.411Z,31.00
2022-12-11T18:58:44.979Z,33.20
2022-12-11T19:01:16.945Z,41.33
2022-12-11T19:03:47.182Z,38.60
2022-12-11T19:06:16.737Z,38.93
2022-12-11T19:08:45.007Z,39.57
2022-12-11T19:11:15.978Z,38.70
2022-12-11T19:13:43.937Z,47.70
2022-12-11T19:16:17.294Z,38.40
2022-12-11T19:18:47.082Z,42.00
2022-12-11T19:21:16.443Z,37.10
2022-12-11T19:23:45.086Z,37.77
2022-12-11T19:26:14.584Z,38.20
2022-12-11T19:28:42.749Z,42.60
2022-12-11T19:31:12.134Z,37.77
2022-12-11T19:33:40.514Z,36.00
2022-12-11T19:36:12.924Z,36.47
2022-12-11T19:38:41.949Z,31.80
2022-12-11T19:41:13.442Z,34.77
2022-12-11T19:43:41.359Z,40.27
2022-12-11T19:46:10.460Z,38.70
2022-12-11T19:48:40.805Z,39.50
2022-12-11T19:51:13.311Z,37.87
2022-12-11T19:53:41.990Z,40.17
2022-12-11T19:56:11.016Z,45.13
2022-12-11T19:58:39.904Z,41.70
2022-12-11T20:01:08.170Z,34.73
2022-12-11T20:03:37.679Z,32.60
2022-12-11T20:06:08.333Z,33.87
2022-12-11T20:08:46.010Z,35.40
2022-12-11T20:11:18.431Z,39.33
2022-12-11T20:13:47.100Z,34.57
2022-12-11T20:16:16.892Z,35.70
2022-12-11T20:18:45.071Z,37.10
2022-12-11T20:21:15.952Z,42.60
2022-12-11T20:23:46.006Z,45.97
2022-12-11T20:26:16.735Z,37.70
2022-12-11T20:28:45.274Z,34.87
2022-12-11T20:31:20.014Z,37.27
2022-12-11T20:33:48.856Z,40.33
2022-12-11T20:36:18.572Z,38.00
2022-12-11T20:38:47.920Z,33.40
2022-12-11T20:41:18.837Z,36.93
2022-12-11T20:43:47.094Z,37.83
2022-12-11T20:46:16.116Z,34.47
2022-12-11T20:48:45.630Z,35.57
2022-12-11T20:51:20.978Z,39.60
2022-12-11T20:53:58.450Z,38.00
2022-12-11T20:56:29.514Z,34.37
2022-12-11T20:58:58.168Z,36.70
2022-12-11T21:01:29.195Z,35.43
2022-12-11T21:03:57.304Z,37.60
2022-12-11T21:06:26.701Z,36.17
2022-12-11T21:08:55.963Z,33.00
2022-12-11T21:11:24.687Z,34.57
2022-12-11T21:13:52.690Z,32.70
2022-12-11T21:16:21.155Z,34.43
2022-12-11T21:18:49.496Z,35.03
2022-12-11T21:21:17.713Z,38.23
2022-12-11T21:23:45.873Z,30.57
2022-12-11T21:26:15.348Z,36.87
2022-12-11T21:28:43.260Z,34.30
2022-12-11T21:31:13.955Z,31.97
2022-12-11T21:33:41.957Z,33.67
2022-12-11T21:36:12.760Z,33.73
2022-12-11T21:38:41.126Z,40.63
2022-12-11T21:41:10.457Z,42.07
2022-12-11T21:44:00.188Z,39.37
2022-12-11T21:46:29.023Z,40.67
2022-12-11T21:48:57.098Z,37.37
2022-12-11T21:51:29.783Z,36.97
2022-12-11T21:54:02.981Z,35.10
2022-12-11T21:56:31.611Z,35.43
2022-12-11T21:59:01.371Z,35.37
2022-12-11T22:01:32.248Z,34.23
2022-12-11T22:04:00.450Z,33.97
2022-12-11T22:06:29.469Z,34.83
2022-12-11T22:08:57.330Z,34.33
2022-12-11T22:11:27.878Z,31.27
2022-12-11T22:13:55.834Z,34.67
2022-12-11T22:16:25.664Z,35.50
2022-12-11T22:18:53.832Z,35.60
2022-12-11T22:21:22.062Z,31.67
2022-12-11T22:23:50.179Z,33.87
2022-12-11T22:26:20.594Z,33.50
2022-12-11T22:28:48.945Z,33.77
2022-12-11T22:31:20.404Z,30.13
2022-12-11T22:33:50.578Z,30.70
2022-12-11T22:36:18.909Z,31.63
2022-12-11T22:38:47.170Z,33.00
2022-12-11T22:41:21.985Z,38.13
2022-12-11T22:43:50.264Z,39.27
2022-12-11T22:46:19.487Z,38.63
2022-12-11T22:48:48.777Z,34.67
2022-12-11T22:51:16.724Z,31.17
2022-12-11T22:53:44.673Z,34.07
2022-12-11T22:56:14.425Z,32.73
2022-12-11T22:58:42.676Z,34.83
